Time;durP1;ratioP1;P1;durP2;ratioP2;P2;SDS_P1;SDS_P2;PMS_P1;PMS_P2;Temp;Humidity;BMP_temperature;BMP_pressure;BME280_temperature;BME280_humidity;BME280_pressure;Samples;Min_cycle;Max_cycle;Signal;HPM_P1;HPM_P2
2021/12/30 00:00:29;;;;;;;47.83;19.20;;;;;;;-5.13;80.41;100675.31;125205;1102;103922;-77
2021/12/30 00:03:11;;;;;;;55.80;21.63;;;;;;;-5.13;81.50;100670.19;125202;1101;103922;-77
2021/12/30 00:05:44;;;;;;;59.00;21.00;;;;;;;-5.10;80.60;100672.16;125125;1102;104089;-78
2021/12/30 00:08:15;;;;;;;48.83;19.67;;;;;;;-5.09;80.54;100680.00;125197;1102;103925;-77
2021/12/30 00:10:48;;;;;;;58.47;22.23;;;;;;;-5.02;80.55;100680.61;125105;1102;103932;-77
2021/12/30 00:13:32;;;;;;;53.20;20.80;;;;;;;-5.00;80.28;100679.09;125155;1102;104245;-78
2021/12/30 00:16:02;;;;;;;51.00;19.12;;;;;;;-4.98;80.37;100682.73;125176;1102;104018;-78
2021/12/30 00:18:32;;;;;;;47.33;19.93;;;;;;;-4.96;80.37;100683.78;125182;1102;104504;-77
2021/12/30 00:21:02;;;;;;;54.43;20.87;;;;;;;-4.98;80.25;100685.30;125194;1102;103962;-77
2021/12/30 00:23:31;;;;;;;55.37;20.67;;;;;;;-4.96;80.81;100681.23;125237;1102;104098;-77
2021/12/30 00:26:01;;;;;;;52.30;20.97;;;;;;;-4.98;81.44;100695.53;125099;1102;103966;-77
2021/12/30 00:28:31;;;;;;;53.47;21.43;;;;;;;-5.00;80.80;100694.45;125206;1102;104053;-77
2021/12/30 00:31:01;;;;;;;55.83;20.37;;;;;;;-4.99;81.03;100691.16;125193;1102;104032;-77
2021/12/30 00:33:32;;;;;;;55.20;21.70;;;;;;;-4.98;80.65;100704.11;125131;1102;103987;-78
2021/12/30 00:36:06;;;;;;;55.77;20.80;;;;;;;-4.96;80.80;100714.50;125077;1102;105184;-78
2021/12/30 00:38:38;;;;;;;51.13;20.10;;;;;;;-4.95;80.79;100711.20;125196;1102;104018;-78
2021/12/30 00:41:09;;;;;;;47.87;19.57;;;;;;;-4.98;80.82;100713.45;125210;1102;103923;-77
2021/12/30 00:43:40;;;;;;;57.10;23.03;;;;;;;-5.00;81.15;100712.37;125144;1102;103925;-77
2021/12/30 00:46:11;;;;;;;52.30;20.60;;;;;;;-5.00;80.73;100714.93;125098;1102;104014;-78
2021/12/30 00:48:43;;;;;;;42.23;18.33;;;;;;;-5.01;80.56;100713.14;125193;1102;104096;-78
2021/12/30 00:51:15;;;;;;;44.60;16.90;;;;;;;-5.03;81.72;100720.66;125213;1102;104017;-77
2021/12/30 00:53:47;;;;;;;51.07;21.57;;;;;;;-5.03;80.87;100715.55;125090;1102;103977;-78
2021/12/30 00:56:19;;;;;;;42.20;17.07;;;;;;;-5.06;81.49;100708.45;125086;1102;103928;-78
2021/12/30 00:58:48;;;;;;;44.47;17.13;;;;;;;-5.03;81.68;100710.43;124962;1102;104034;-77
2021/12/30 01:01:20;;;;;;;46.83;19.37;;;;;;;-4.96;81.11;100715.39;125136;1102;104000;-77
2021/12/30 01:03:51;;;;;;;53.23;19.07;;;;;;;-4.91;80.93;100715.85;125250;1102;104114;-77
2021/12/30 01:06:20;;;;;;;42.73;17.83;;;;;;;-4.87;80.87;100712.86;125197;1102;103950;-77
2021/12/30 01:08:50;;;;;;;41.27;17.23;;;;;;;-4.87;80.84;100712.86;125198;1102;103922;-77
2021/12/30 01:11:22;;;;;;;43.97;18.20;;;;;;;-4.91;81.48;100703.05;125192;1102;104024;-77
2021/12/30 01:14:01;;;;;;;43.10;18.57;;;;;;;-4.94;81.20;100706.23;125181;1102;104541;-77
2021/12/30 01:16:36;;;;;;;48.10;20.03;;;;;;;-4.96;81.16;100706.81;125035;1102;104041;-78
2021/12/30 01:19:22;;;;;;;48.43;18.40;;;;;;;-4.99;81.15;100706.52;125024;1102;103961;-77
2021/12/30 01:21:57;;;;;;;42.50;18.57;;;;;;;-5.00;81.37;100707.25;125013;1102;103929;-78
2021/12/30 01:24:26;;;;;;;46.63;18.87;;;;;;;-4.96;81.19;100709.38;125144;1102;103983;-78
2021/12/30 01:26:56;;;;;;;45.03;16.73;;;;;;;-4.98;82.14;100710.89;125145;1102;104015;-78
2021/12/30 01:29:29;;;;;;;46.50;19.27;;;;;;;-5.03;82.00;100715.55;125198;1102;103939;-77
2021/12/30 01:31:59;;;;;;;45.20;19.67;;;;;;;-5.06;81.27;100711.02;125208;1102;103981;-77
2021/12/30 01:34:29;;;;;;;45.80;18.63;;;;;;;-5.04;81.19;100712.83;125193;1102;104436;-76
2021/12/30 01:37:01;;;;;;;41.00;16.30;;;;;;;-5.04;82.27;100707.72;124914;1103;104149;-75
2021/12/30 01:39:33;;;;;;;49.83;19.07;;;;;;;-5.07;82.80;100704.07;125164;1102;103942;-78
2021/12/30 01:42:04;;;;;;;53.40;19.83;;;;;;;-5.09;82.20;100712.37;125185;1102;104475;-77
2021/12/30 01:44:46;;;;;;;47.10;18.90;;;;;;;-5.12;81.88;100712.95;125193;1102;103935;-78
2021/12/30 01:47:16;;;;;;;49.20;20.50;;;;;;;-5.13;81.68;100712.80;125098;1102;104078;-78
2021/12/30 01:49:50;;;;;;;47.20;19.00;;;;;;;-5.15;81.57;100720.32;125126;1102;104054;-77
2021/12/30 01:52:21;;;;;;;45.37;18.47;;;;;;;-5.15;81.79;100724.55;125163;1102;103922;-77
2021/12/30 01:54:51;;;;;;;41.70;16.53;;;;;;;-5.15;81.45;100730.55;125198;1102;104028;-77
2021/12/30 01:57:21;;;;;;;46.53;18.67;;;;;;;-5.16;81.85;100731.29;125188;1102;103935;-77
2021/12/30 01:59:51;;;;;;;42.37;17.33;;;;;;;-5.18;82.24;100729.34;125194;1102;104057;-77
2021/12/30 02:02:21;;;;;;;43.05;18.00;;;;;;;-5.21;82.04;100729.03;125175;1102;103938;-77
2021/12/30 02:04:52;;;;;;;45.90;17.90;;;;;;;-5.23;82.77;100728.88;125148;1102;104021;-77
2021/12/30 02:07:22;;;;;;;41.37;16.93;;;;;;;-5.29;82.80;100721.48;125163;1102;103931;-77
2021/12/30 02:09:59;;;;;;;42.20;15.60;;;;;;;-5.31;83.81;100725.54;125096;1102;103922;-77
2021/12/30 02:12:32;;;;;;;43.70;17.33;;;;;;;-5.34;83.29;100717.55;125231;1102;103934;-78
2021/12/30 02:15:01;;;;;;;48.53;18.37;;;;;;;-5.32;82.46;100720.27;125137;1102;104005;-77
2021/12/30 02:17:31;;;;;;;43.77;17.17;;;;;;;-5.30;83.23;100728.99;125154;1102;103919;-76
2021/12/30 02:20:03;;;;;;;45.87;17.27;;;;;;;-5.33;82.82;100718.45;125178;1102;103948;-78
2021/12/30 02:22:36;;;;;;;41.23;16.47;;;;;;;-5.31;82.62;100714.42;125171;1102;104972;-77
2021/12/30 02:25:07;;;;;;;41.23;17.63;;;;;;;-5.30;82.35;100719.69;125146;1102;103957;-77
2021/12/30 02:27:39;;;;;;;42.10;17.03;;;;;;;-5.28;82.54;100728.41;125077;1102;104066;-77
2021/12/30 02:30:11;;;;;;;45.53;17.10;;;;;;;-5.27;82.71;100722.56;125111;1102;104066;-77
2021/12/30 02:32:48;;;;;;;43.33;16.13;;;;;;;-5.26;82.17;100726.91;125149;1102;103984;-77
2021/12/30 02:35:19;;;;;;;45.37;17.30;;;;;;;-5.28;82.01;100728.41;125216;1102;103961;-78
2021/12/30 02:37:55;;;;;;;41.80;16.07;;;;;;;-5.29;81.99;100730.81;125079;1102;104098;-77
2021/12/30 02:40:33;;;;;;;42.70;16.45;;;;;;;-5.30;81.57;100728.99;124951;1105;104423;-77
2021/12/30 02:43:03;;;;;;;38.00;16.10;;;;;;;-5.28;81.57;100732.64;125007;1105;104040;-77
2021/12/30 02:45:34;;;;;;;40.20;16.70;;;;;;;-5.24;81.92;100725.39;124996;1105;101682;-78
2021/12/30 02:48:05;;;;;;;39.90;16.83;;;;;;;-5.22;82.44;100732.33;124944;1105;104420;-78
2021/12/30 02:50:35;;;;;;;40.77;17.13;;;;;;;-5.20;81.94;100735.94;124986;1106;104104;-78
2021/12/30 02:53:05;;;;;;;45.57;17.40;;;;;;;-5.19;82.08;100736.09;124962;1106;103941;-77
2021/12/30 02:55:37;;;;;;;38.83;15.43;;;;;;;-5.17;81.81;100741.38;125042;1106;104818;-77
2021/12/30 02:58:07;;;;;;;36.07;15.23;;;;;;;-5.16;82.09;100738.97;124939;1105;104079;-77
2021/12/30 03:00:40;;;;;;;33.97;13.53;;;;;;;-5.13;82.02;100746.06;125008;1105;104079;-77
2021/12/30 03:03:18;;;;;;;36.43;14.43;;;;;;;-5.14;82.23;100741.69;125024;1105;103931;-77
2021/12/30 03:05:48;;;;;;;34.83;14.10;;;;;;;-5.19;82.32;100751.45;125002;1105;104134;-77
2021/12/30 03:08:17;;;;;;;35.77;14.20;;;;;;;-5.24;82.31;100750.08;124973;1105;104151;-78
2021/12/30 03:10:47;;;;;;;34.63;13.53;;;;;;;-5.30;81.94;100749.45;125003;1105;103964;-77
2021/12/30 03:13:19;;;;;;;34.17;14.40;;;;;;;-5.30;82.00;100752.02;125169;1102;103936;-77
2021/12/30 03:15:49;;;;;;;33.60;14.97;;;;;;;-5.29;81.94;100754.73;125234;1102;103947;-78
2021/12/30 03:18:19;;;;;;;37.00;15.35;;;;;;;-5.25;82.03;100761.05;125144;1102;103923;-78
2021/12/30 03:20:49;;;;;;;39.17;16.27;;;;;;;-5.20;81.86;100761.52;125205;1102;104480;-77
2021/12/30 03:23:18;;;;;;;37.33;15.93;;;;;;;-5.18;81.90;100753.27;125176;1102;103932;-77
2021/12/30 03:25:48;;;;;;;37.53;16.47;;;;;;;-5.15;81.94;100748.46;125143;1102;103928;-78
2021/12/30 03:28:18;;;;;;;38.87;15.50;;;;;;;-5.09;81.94;100750.75;125082;1102;103981;-78
2021/12/30 03:30:49;;;;;;;39.30;16.80;;;;;;;-5.04;81.88;100754.67;125167;1102;103922;-77
2021/12/30 03:33:20;;;;;;;34.47;14.20;;;;;;;-5.01;81.91;100754.09;125157;1102;103931;-77
2021/12/30 03:35:50;;;;;;;35.10;14.27;;;;;;;-5.01;81.66;100752.42;125176;1102;104088;-77
2021/12/30 03:38:20;;;;;;;35.97;14.17;;;;;;;-5.00;81.65;100756.80;125147;1102;103953;-78
2021/12/30 03:40:51;;;;;;;34.40;14.80;;;;;;;-5.03;82.11;100755.56;125152;1102;119190;-77
2021/12/30 03:43:20;;;;;;;41.00;16.50;;;;;;;-5.11;81.59;100753.16;125148;1102;104400;-78
2021/12/30 03:45:50;;;;;;;41.33;17.27;;;;;;;-5.16;81.64;100749.20;125163;1102;103935;-77
2021/12/30 03:48:20;;;;;;;39.87;17.00;;;;;;;-5.20;81.72;100759.89;125144;1102;103925;-77
2021/12/30 03:50:51;;;;;;;38.27;16.10;;;;;;;-5.20;81.66;100761.52;125071;1102;103925;-77
2021/12/30 03:53:21;;;;;;;33.27;14.13;;;;;;;-5.23;81.93;100762.14;125250;1102;102671;-78
2021/12/30 03:55:51;;;;;;;37.23;14.53;;;;;;;-5.27;81.65;100765.13;125171;1102;104092;-76
2021/12/30 03:58:23;;;;;;;34.33;14.20;;;;;;;-5.30;81.95;100762.25;125175;1102;104054;-76
2021/12/30 04:00:53;;;;;;;36.73;14.57;;;;;;;-5.29;81.66;100764.97;125116;1102;103932;-76
2021/12/30 04:03:23;;;;;;;37.50;15.40;;;;;;;-5.25;81.81;100764.54;125203;1102;103996;-78
2021/12/30 04:05:52;;;;;;;40.10;14.60;;;;;;;-5.24;82.04;100767.99;125215;1102;104355;-78
2021/12/30 04:08:22;;;;;;;39.37;16.10;;;;;;;-5.28;82.03;100765.89;125171;1102;104413;-78
2021/12/30 04:10:52;;;;;;;33.00;14.23;;;;;;;-5.33;81.74;100770.53;125152;1102;104069;-78
2021/12/30 04:13:23;;;;;;;35.03;13.83;;;;;;;-5.34;81.71;100778.95;125105;1102;104411;-78
2021/12/30 04:15:54;;;;;;;41.97;16.57;;;;;;;-5.39;81.78;100784.33;125059;1102;103973;-77
2021/12/30 04:18:24;;;;;;;35.87;14.10;;;;;;;-5.44;81.85;100789.89;125169;1102;104053;-77
2021/12/30 04:20:55;;;;;;;37.10;14.37;;;;;;;-5.48;82.75;100805.66;124915;1102;104024;-77
2021/12/30 04:23:24;;;;;;;39.53;15.40;;;;;;;-5.49;82.49;100810.61;125010;1101;104054;-78
2021/12/30 04:25:54;;;;;;;39.17;14.60;;;;;;;-5.50;81.94;100812.27;125207;1102;103934;-78
2021/12/30 04:28:25;;;;;;;35.73;15.70;;;;;;;-5.52;82.44;100813.74;125225;1102;103919;-78
2021/12/30 04:30:56;;;;;;;32.23;14.17;;;;;;;-5.51;82.14;100823.23;125108;1102;104108;-77
2021/12/30 04:33:25;;;;;;;35.70;13.57;;;;;;;-5.51;82.00;100830.02;125148;1102;104054;-77
2021/12/30 04:35:56;;;;;;;31.30;12.60;;;;;;;-5.53;82.32;100840.08;125214;1102;104067;-77
2021/12/30 04:38:27;;;;;;;32.97;13.00;;;;;;;-5.52;81.82;100851.20;125188;1102;104056;-77
2021/12/30 04:41:00;;;;;;;34.47;14.57;;;;;;;-5.51;81.98;100853.92;125113;1101;104059;-77
2021/12/30 04:43:29;;;;;;;31.37;13.30;;;;;;;-5.48;81.88;100864.47;125104;1102;103931;-78
2021/12/30 04:46:00;;;;;;;32.47;13.93;;;;;;;-5.47;82.17;100868.86;125137;1102;104056;-77
2021/12/30 04:48:30;;;;;;;31.27;11.93;;;;;;;-5.44;81.89;100878.48;125198;1102;103928;-78
2021/12/30 04:51:05;;;;;;;33.90;14.17;;;;;;;-5.44;82.25;100878.48;125161;1102;104057;-75
2021/12/30 04:53:33;;;;;;;;;;;;;;;-5.37;81.84;100874.94;125146;1102;103993;-76
2021/12/30 04:56:03;;;;;;;32.83;12.73;;;;;;;-5.35;81.97;100883.66;125208;1102;104426;-77
2021/12/30 04:58:33;;;;;;;28.57;10.33;;;;;;;-5.30;82.00;100877.37;125150;1102;103973;-77
2021/12/30 05:01:03;;;;;;;31.10;12.63;;;;;;;-5.30;82.05;100882.48;125128;1102;104054;-77
2021/12/30 05:03:33;;;;;;;31.80;13.00;;;;;;;-5.38;81.56;100884.23;125175;1102;104355;-77
2021/12/30 05:06:06;;;;;;;28.73;12.07;;;;;;;-5.39;81.82;100890.13;125226;1102;104082;-77
2021/12/30 05:08:36;;;;;;;33.08;12.73;;;;;;;-5.39;81.43;100896.87;125167;1102;103935;-77
2021/12/30 05:11:07;;;;;;;35.87;14.70;;;;;;;-5.37;81.64;100895.40;125052;1102;104461;-78
2021/12/30 05:13:38;;;;;;;30.67;13.47;;;;;;;-5.37;81.79;100882.61;124990;1102;103967;-78
2021/12/30 05:16:08;;;;;;;26.03;10.70;;;;;;;-5.36;81.73;100893.00;125086;1102;104361;-77
2021/12/30 05:18:40;;;;;;;31.57;11.60;;;;;;;-5.33;81.92;100894.95;125099;1102;103929;-78
2021/12/30 05:21:10;;;;;;;29.53;13.53;;;;;;;-5.36;81.66;100889.52;125018;1102;103935;-78
2021/12/30 05:23:40;;;;;;;31.40;13.67;;;;;;;-5.37;81.69;100896.30;124869;1102;103929;-77
2021/12/30 05:26:10;;;;;;;30.25;12.70;;;;;;;-5.29;81.81;100897.09;125038;1102;103957;-76
2021/12/30 05:28:39;;;;;;;31.63;12.97;;;;;;;-5.25;81.83;100896.65;125038;1102;104171;-78
2021/12/30 05:31:09;;;;;;;34.65;13.95;;;;;;;-5.24;81.51;100903.59;124986;1102;103921;-78
2021/12/30 05:33:39;;;;;;;33.40;14.00;;;;;;;-5.23;81.58;100900.30;125062;1102;104012;-78
2021/12/30 05:36:13;;;;;;;30.30;12.87;;;;;;;-5.18;81.74;100899.11;124946;1102;103951;-78
2021/12/30 05:38:43;;;;;;;30.82;12.25;;;;;;;-5.20;81.24;100905.73;124926;1102;103950;-77
2021/12/30 05:41:12;;;;;;;26.63;11.43;;;;;;;-5.22;81.64;100909.77;125066;1102;103926;-77
2021/12/30 05:43:42;;;;;;;25.70;11.37;;;;;;;-5.24;81.69;100907.05;124905;1102;103990;-78
2021/12/30 05:46:12;;;;;;;30.47;13.00;;;;;;;-5.19;81.47;100902.41;124970;1102;105189;-77
2021/12/30 05:48:41;;;;;;;34.63;14.53;;;;;;;-5.16;81.50;100914.63;124955;1102;103957;-77
2021/12/30 05:51:11;;;;;;;33.33;12.63;;;;;;;-5.15;81.50;100913.89;125116;1102;104145;-77
2021/12/30 05:53:41;;;;;;;33.00;13.40;;;;;;;-5.14;81.51;100915.69;125101;1102;104011;-77
2021/12/30 05:56:10;;;;;;;31.17;12.77;;;;;;;-5.07;81.66;100924.16;125172;1102;103942;-77
2021/12/30 05:58:40;;;;;;;28.60;11.43;;;;;;;-5.16;81.12;100933.44;125052;1102;104110;-77
2021/12/30 06:01:10;;;;;;;29.20;11.27;;;;;;;-5.27;81.25;100944.20;124967;1103;103957;-78
2021/12/30 06:03:40;;;;;;;26.83;11.20;;;;;;;-5.34;81.27;100946.88;124997;1102;103957;-77
2021/12/30 06:06:09;;;;;;;26.13;10.60;;;;;;;-5.37;81.30;100952.56;125046;1102;103980;-77
2021/12/30 06:08:39;;;;;;;30.50;11.97;;;;;;;-5.40;81.11;100956.46;125139;1102;103990;-77
2021/12/30 06:11:08;;;;;;;28.83;13.10;;;;;;;-5.44;81.62;100953.58;124994;1103;104483;-77
2021/12/30 06:13:38;;;;;;;28.20;13.33;;;;;;;-5.42;81.49;100964.87;125039;1102;103928;-77
2021/12/30 06:16:08;;;;;;;29.33;12.23;;;;;;;-5.41;81.43;100965.77;125179;1102;104009;-77
2021/12/30 06:18:38;;;;;;;33.40;15.00;;;;;;;-5.35;81.32;100965.52;125092;1102;104059;-79
2021/12/30 06:21:07;;;;;;;32.87;13.73;;;;;;;-5.27;81.64;100964.67;125121;1102;103990;-78
2021/12/30 06:23:37;;;;;;;33.97;14.30;;;;;;;-5.18;81.60;100968.20;125100;1102;104110;-79
2021/12/30 06:26:07;;;;;;;31.73;12.97;;;;;;;-5.08;81.75;100968.44;125092;1101;103961;-78
2021/12/30 06:28:36;;;;;;;27.05;11.05;;;;;;;-5.07;81.31;100983.02;125110;1102;104009;-79
2021/12/30 06:31:06;;;;;;;28.23;11.33;;;;;;;-5.12;80.87;100989.31;124995;1102;103925;-79
2021/12/30 06:33:36;;;;;;;28.07;12.23;;;;;;;-5.12;81.19;100990.98;124923;1103;104079;-78
2021/12/30 06:36:07;;;;;;;31.13;12.17;;;;;;;-5.12;81.29;100994.44;125065;1102;104021;-78
2021/12/30 06:38:37;;;;;;;29.50;12.57;;;;;;;-5.16;81.17;100989.73;125000;1102;103992;-78
2021/12/30 06:41:07;;;;;;;25.57;10.73;;;;;;;-5.17;81.15;100997.23;125032;1102;104061;-79
2021/12/30 06:43:38;;;;;;;28.77;11.47;;;;;;;-5.21;81.10;101001.14;124950;1102;104098;-79
2021/12/30 06:46:10;;;;;;;25.13;10.37;;;;;;;-5.19;81.21;101003.86;124861;1102;104093;-78
2021/12/30 06:48:44;;;;;;;28.57;11.73;;;;;;;-5.21;80.68;101006.25;125000;1102;104056;-78
2021/12/30 06:51:21;;;;;;;29.57;12.80;;;;;;;-5.20;81.31;101008.08;125046;1102;103958;-78
2021/12/30 06:53:54;;;;;;;33.30;14.67;;;;;;;-5.13;81.28;101005.41;124970;1102;103996;-78
2021/12/30 06:56:24;;;;;;;29.50;11.80;;;;;;;-5.03;81.44;101012.42;124936;1103;103932;-78
2021/12/30 06:58:55;;;;;;;28.13;11.43;;;;;;;-5.04;81.33;101020.84;124854;1103;104025;-77
2021/12/30 07:01:25;;;;;;;30.30;13.07;;;;;;;-4.98;81.36;101021.48;125001;1102;103955;-77
2021/12/30 07:03:55;;;;;;;29.23;12.07;;;;;;;-4.90;81.07;101017.17;124724;1102;103993;-76
2021/12/30 07:06:25;;;;;;;29.57;12.77;;;;;;;-4.94;80.91;101020.15;124775;1102;103983;-77
2021/12/30 07:08:57;;;;;;;28.07;11.70;;;;;;;-4.98;80.74;101021.48;124862;1102;104075;-77
2021/12/30 07:11:27;;;;;;;26.00;10.97;;;;;;;-4.95;80.72;101020.91;124969;1102;104078;-76
2021/12/30 07:13:57;;;;;;;27.00;10.73;;;;;;;-4.89;81.01;101026.68;124668;1102;104089;-76
2021/12/30 07:16:27;;;;;;;26.57;11.80;;;;;;;-4.87;80.89;101030.30;124811;1102;103919;-76
2021/12/30 07:18:57;;;;;;;28.83;11.80;;;;;;;-4.91;81.02;101029.08;124922;1102;104085;-76
2021/12/30 07:21:27;;;;;;;26.45;11.60;;;;;;;-4.91;80.63;101039.31;124874;1102;103932;-75
2021/12/30 07:23:56;;;;;;;26.20;11.73;;;;;;;-4.87;81.10;101043.99;124899;1102;105252;-76
2021/12/30 07:26:26;;;;;;;31.77;14.10;;;;;;;-4.88;80.70;101039.64;124898;1102;104069;-76
2021/12/30 07:29:03;;;;;;;34.20;14.37;;;;;;;-4.82;80.82;101039.36;124951;1102;103964;-76
2021/12/30 07:31:33;;;;;;;33.53;13.80;;;;;;;-4.84;80.79;101038.30;124916;1102;105089;-76
2021/12/30 07:34:04;;;;;;;30.50;13.97;;;;;;;-4.83;80.95;101047.81;124881;1102;104085;-76
2021/12/30 07:36:34;;;;;;;33.90;15.57;;;;;;;-4.73;81.67;101037.77;124955;1102;104381;-77
2021/12/30 07:39:05;;;;;;;35.10;14.47;;;;;;;-4.56;81.06;101046.31;125018;1102;104421;-77
2021/12/30 07:41:38;;;;;;;36.87;16.17;;;;;;;-4.48;80.86;101041.98;124959;1102;104024;-76
2021/12/30 07:44:11;;;;;;;34.00;15.13;;;;;;;-4.39;80.99;101051.53;124968;1102;103957;-76
2021/12/30 07:46:41;;;;;;;36.40;15.70;;;;;;;-4.30;81.19;101050.66;124855;1102;104063;-76
2021/12/30 07:49:14;;;;;;;31.97;13.63;;;;;;;-4.22;80.69;101053.27;124958;1102;103961;-77
2021/12/30 07:51:59;;;;;;;31.87;13.40;;;;;;;-4.09;81.53;101046.84;125027;1102;103970;-76
2021/12/30 07:55:06;;;;;;;34.03;14.63;;;;;;;-4.00;81.57;101051.25;124851;1102;103973;-77
2021/12/30 07:57:41;;;;;;;33.33;14.80;;;;;;;-3.81;81.69;101041.19;124906;1102;104070;-76
2021/12/30 08:00:20;;;;;;;29.40;13.33;;;;;;;-3.71;81.21;101044.69;124949;1102;104117;-77
2021/12/30 08:02:51;;;;;;;27.37;12.33;;;;;;;-3.74;80.31;101047.88;124978;1102;103990;-76
2021/12/30 08:05:26;;;;;;;29.43;12.27;;;;;;;-3.72;80.85;101050.59;124899;1102;103873;-76
2021/12/30 08:07:59;;;;;;;31.93;12.83;;;;;;;-3.66;80.76;101051.18;124875;1102;103925;-77
2021/12/30 08:10:33;;;;;;;30.43;13.35;;;;;;;-3.71;79.81;101057.52;124694;1102;103967;-77
2021/12/30 08:13:02;;;;;;;;;;;;;;;-3.74;80.03;101060.70;124839;1102;104266;-77
2021/12/30 08:15:33;;;;;;;30.23;13.27;;;;;;;-3.80;80.56;101060.97;124824;1102;101614;-76
2021/12/30 08:18:05;;;;;;;29.93;14.00;;;;;;;-3.77;81.40;101062.02;124970;1102;104083;-77
2021/12/30 08:20:36;;;;;;;35.13;13.77;;;;;;;-3.75;79.89;101073.36;125009;1102;104014;-76
2021/12/30 08:23:08;;;;;;;34.30;15.77;;;;;;;-3.74;81.11;101073.52;125067;1102;103955;-76
2021/12/30 08:25:42;;;;;;;30.03;14.60;;;;;;;-3.67;80.69;101072.47;125008;1102;104368;-78
2021/12/30 08:28:12;;;;;;;30.97;12.47;;;;;;;-3.59;80.39;101066.45;124842;1103;103989;-78
2021/12/30 08:30:45;;;;;;;34.13;15.23;;;;;;;-3.65;79.92;101066.72;124936;1102;104006;-78
2021/12/30 08:33:18;;;;;;;30.60;14.13;;;;;;;-3.66;80.04;101057.23;125005;1102;104009;-78
2021/12/30 08:36:01;;;;;;;33.23;15.47;;;;;;;-3.69;80.00;101059.49;124849;1102;103938;-78
2021/12/30 08:38:36;;;;;;;34.03;15.43;;;;;;;-3.57;81.06;101070.06;124786;1106;104037;-77
2021/12/30 08:41:09;;;;;;;39.37;17.40;;;;;;;-3.56;80.60;101070.99;124773;1102;103964;-77
2021/12/30 08:43:40;;;;;;;35.50;15.53;;;;;;;-3.61;80.65;101065.40;124775;1106;104419;-78
2021/12/30 08:46:13;;;;;;;33.40;15.33;;;;;;;-3.55;80.98;101057.39;124882;1102;105341;-78
2021/12/30 08:48:46;;;;;;;32.10;14.13;;;;;;;-3.58;80.40;101052.88;124988;1102;104350;-77
2021/12/30 08:51:16;;;;;;;31.87;14.93;;;;;;;-3.63;79.97;101061.75;124919;1102;103986;-76
2021/12/30 08:53:47;;;;;;;36.20;15.57;;;;;;;-3.66;79.43;101071.70;125001;1102;104098;-77
2021/12/30 08:56:17;;;;;;;32.97;15.53;;;;;;;-3.65;80.10;101076.09;124720;1103;103928;-77
2021/12/30 08:58:48;;;;;;;36.77;16.03;;;;;;;-3.56;80.88;101081.26;124871;1102;104038;-77
2021/12/30 09:01:21;;;;;;;36.00;15.87;;;;;;;-3.50;81.00;101072.51;124966;1102;103954;-76
2021/12/30 09:03:51;;;;;;;40.80;17.90;;;;;;;-3.39;80.52;101062.42;125059;1102;103938;-78
2021/12/30 09:06:24;;;;;;;37.97;18.13;;;;;;;-3.30;80.27;101060.78;124968;1100;103929;-78
2021/12/30 09:08:55;;;;;;;39.33;17.07;;;;;;;-3.26;81.18;101068.94;125095;1102;104220;-78
2021/12/30 09:11:25;;;;;;;38.10;17.40;;;;;;;-3.25;79.82;101073.30;125120;1101;104102;-77
2021/12/30 09:14:01;;;;;;;38.60;17.47;;;;;;;-3.26;79.80;101066.37;125109;1102;104059;-77
2021/12/30 09:16:32;;;;;;;41.50;18.43;;;;;;;-3.30;80.52;101060.78;125042;1102;104050;-77
2021/12/30 09:19:04;;;;;;;39.55;17.70;;;;;;;-3.36;80.27;101063.63;124816;1102;104034;-78
2021/12/30 09:21:38;;;;;;;40.30;17.40;;;;;;;-3.28;80.29;101051.56;125018;1102;103938;-77
2021/12/30 09:24:09;;;;;;;36.30;16.70;;;;;;;-3.18;80.25;101050.80;124842;1102;104143;-78
2021/12/30 09:26:40;;;;;;;37.37;17.47;;;;;;;-3.10;80.49;101050.81;124979;1102;104054;-78
2021/12/30 09:29:12;;;;;;;34.07;16.20;;;;;;;-3.06;80.67;101046.87;124821;1102;103957;-78
2021/12/30 09:31:52;;;;;;;38.50;17.73;;;;;;;-2.98;81.07;101048.53;125140;1102;103993;-77
2021/12/30 09:34:22;;;;;;;36.30;17.40;;;;;;;-2.90;81.31;101047.64;125059;1102;104063;-77
2021/12/30 09:36:52;;;;;;;37.37;17.03;;;;;;;-2.85;80.70;101037.81;124918;1101;105335;-78
2021/12/30 09:39:24;;;;;;;36.30;16.90;;;;;;;-2.80;80.69;101038.27;124950;1102;104060;-77
2021/12/30 09:41:54;;;;;;;36.33;16.60;;;;;;;-2.74;80.22;101046.57;124976;1102;104054;-76
2021/12/30 09:44:26;;;;;;;41.97;18.80;;;;;;;-2.69;81.14;101045.34;125144;1102;104104;-76
2021/12/30 09:47:01;;;;;;;33.90;15.77;;;;;;;-2.70;80.50;101048.66;124886;1102;104104;-77
2021/12/30 09:49:32;;;;;;;37.42;18.25;;;;;;;-2.80;80.24;101045.97;124830;1102;103970;-77
2021/12/30 09:52:03;;;;;;;36.80;17.67;;;;;;;-2.81;80.24;101049.28;124999;1102;103984;-76
2021/12/30 09:54:39;;;;;;;39.43;17.33;;;;;;;-2.80;79.89;101059.70;124782;1102;104368;-76
2021/12/30 09:57:11;;;;;;;36.33;16.93;;;;;;;-2.95;79.70;101059.10;124995;1102;103952;-76
2021/12/30 09:59:41;;;;;;;36.67;17.33;;;;;;;-3.06;79.51;101054.58;125004;1102;104002;-76
2021/12/30 10:02:11;;;;;;;43.07;19.93;;;;;;;-3.12;80.19;101061.67;124952;1102;103995;-77
2021/12/30 10:04:43;;;;;;;41.07;19.63;;;;;;;-3.16;80.02;101055.34;124980;1102;103947;-77
2021/12/30 10:07:21;;;;;;;39.60;18.87;;;;;;;-3.18;79.45;101049.16;125058;1102;103954;-76
2021/12/30 10:09:59;;;;;;;46.50;20.73;;;;;;;-3.11;80.17;101048.09;124993;1101;103973;-76
2021/12/30 10:12:39;;;;;;;43.13;19.73;;;;;;;-3.01;80.55;101055.03;125001;1102;104091;-77
2021/12/30 10:15:09;;;;;;;43.23;18.33;;;;;;;-2.96;80.04;101062.45;125033;1102;104048;-77
2021/12/30 10:17:44;;;;;;;42.20;19.80;;;;;;;-2.98;80.31;101053.66;124949;1102;103952;-77
2021/12/30 10:20:21;;;;;;;;;;;;;;;-2.95;80.12;101055.64;124928;1102;103958;-78
2021/12/30 10:22:53;;;;;;;46.53;20.80;;;;;;;-2.92;79.73;101051.70;124842;1101;104460;-78
2021/12/30 10:25:28;;;;;;;44.20;21.77;;;;;;;-2.82;80.98;101056.09;124917;1102;104108;-78
2021/12/30 10:28:21;;;;;;;46.23;21.40;;;;;;;-2.74;80.66;101059.41;124890;1102;103971;-79
2021/12/30 10:30:54;;;;;;;42.97;21.00;;;;;;;-2.73;80.87;101053.50;125037;1102;104067;-78
2021/12/30 10:33:27;;;;;;;46.87;21.63;;;;;;;-2.73;80.11;101040.66;124843;1103;103952;-78
2021/12/30 10:35:58;;;;;;;52.53;23.27;;;;;;;-2.75;79.84;101035.36;124951;1102;103935;-78
2021/12/30 10:38:31;;;;;;;46.97;21.37;;;;;;;-2.75;80.29;101044.74;124992;1102;103934;-77
2021/12/30 10:41:04;;;;;;;36.15;17.95;;;;;;;-2.78;80.41;101045.34;124801;1105;104002;-77
2021/12/30 10:43:44;;;;;;;45.80;21.50;;;;;;;-2.87;80.24;101044.44;125095;1102;104046;-76
2021/12/30 10:46:20;;;;;;;47.73;20.67;;;;;;;-2.95;79.58;101053.97;125132;1102;103983;-78
2021/12/30 10:49:05;;;;;;;47.95;21.90;;;;;;;-3.00;79.57;101056.86;124891;1102;105364;-78
2021/12/30 10:51:41;;;;;;;51.30;24.47;;;;;;;-3.05;79.29;101061.54;124822;1102;103998;-79
2021/12/30 10:54:15;;;;;;;49.77;21.97;;;;;;;-3.12;79.61;101056.55;124916;1102;104053;-77
2021/12/30 10:56:47;;;;;;;50.38;24.02;;;;;;;-3.14;80.10;101063.20;124936;1102;104050;-78
2021/12/30 10:59:27;;;;;;;49.17;23.33;;;;;;;-3.10;80.57;101067.86;125098;1102;112597;-79
2021/12/30 11:02:02;;;;;;;51.13;25.63;;;;;;;-3.09;80.30;101067.11;125006;1102;103986;-78
2021/12/30 11:04:38;;;;;;;50.87;23.63;;;;;;;-3.01;80.08;101061.06;124784;1102;104021;-78
2021/12/30 11:07:10;;;;;;;51.70;24.10;;;;;;;-3.01;79.97;101065.30;124929;1102;104028;-78
2021/12/30 11:09:49;;;;;;;51.47;24.13;;;;;;;-3.04;80.05;101059.87;124909;1102;104442;-78
2021/12/30 11:12:30;;;;;;;52.43;23.47;;;;;;;-3.14;79.49;101069.23;124960;1102;104089;-80
2021/12/30 11:15:05;;;;;;;53.10;25.13;;;;;;;-3.16;79.46;101069.85;124858;1102;103953;-78